createdAt,value
2023-01-14T00:00:01.609Z,5.50
2023-01-14T00:05:16.995Z,5.50
2023-01-14T00:10:19.297Z,5.40
2023-01-14T00:15:21.484Z,5.40
2023-01-14T00:20:24.061Z,5.30
2023-01-14T00:25:26.284Z,5.20
2023-01-14T00:30:28.559Z,5.20
2023-01-14T00:35:32.823Z,5.10
2023-01-14T00:40:35.030Z,5.10
2023-01-14T00:45:37.339Z,5.20
2023-01-14T00:50:39.570Z,5.10
2023-01-14T00:55:41.757Z,5.10
2023-01-14T01:00:44.941Z,5.10
2023-01-14T01:05:48.070Z,5.20
2023-01-14T01:10:53.033Z,5.10
2023-01-14T01:16:01.346Z,5.10
2023-01-14T01:21:14.201Z,5.10
2023-01-14T01:26:19.434Z,5.10
2023-01-14T01:31:24.061Z,5.10
2023-01-14T01:36:29.867Z,5.20
2023-01-14T01:41:33.552Z,5.20
2023-01-14T01:46:38.007Z,5.00
2023-01-14T01:56:58.291Z,5.00
2023-01-14T02:02:02.330Z,5.00
2023-01-14T02:07:17.539Z,5.10
2023-01-14T02:12:48.427Z,5.00
2023-01-14T02:28:54.068Z,5.00
2023-01-14T02:39:26.352Z,4.90
2023-01-14T02:44:35.321Z,4.70
2023-01-14T02:49:42.580Z,4.40
2023-01-14T02:54:55.884Z,4.30
2023-01-14T03:10:50.506Z,4.60
2023-01-14T03:16:02.148Z,4.70
2023-01-14T03:21:09.309Z,4.70
2023-01-14T03:26:13.704Z,4.70
2023-01-14T03:31:22.982Z,4.80
2023-01-14T03:36:29.552Z,4.80
2023-01-14T03:41:51.807Z,4.80
2023-01-14T03:46:55.132Z,4.90
2023-01-14T03:52:10.352Z,4.80
2023-01-14T04:02:29.547Z,4.80
2023-01-14T04:07:32.420Z,4.80
2023-01-14T04:12:34.648Z,4.90
2023-01-14T04:17:39.099Z,4.80
2023-01-14T04:22:41.332Z,4.90
2023-01-14T04:27:43.572Z,4.70
2023-01-14T04:32:46.537Z,4.60
2023-01-14T04:37:48.803Z,4.60
2023-01-14T04:42:51.416Z,4.60
2023-01-14T04:47:53.662Z,4.70
2023-01-14T04:52:55.894Z,4.70
2023-01-14T04:57:58.123Z,4.80
2023-01-14T05:03:03.641Z,4.80
2023-01-14T05:08:07.860Z,4.80
2023-01-14T05:13:10.406Z,4.80
2023-01-14T05:18:15.391Z,4.90
2023-01-14T05:23:18.149Z,4.80
2023-01-14T05:28:21.732Z,4.90
2023-01-14T05:33:23.977Z,4.90
2023-01-14T05:38:27.029Z,4.90
2023-01-14T05:43:49.524Z,4.80
2023-01-14T05:48:51.738Z,4.80
2023-01-14T05:53:53.981Z,4.80
2023-01-14T05:58:56.311Z,4.80
2023-01-14T06:04:18.544Z,4.70
2023-01-14T06:09:21.229Z,4.80
2023-01-14T06:14:23.447Z,4.80
2023-01-14T06:19:26.131Z,4.80
2023-01-14T06:24:28.337Z,4.80
2023-01-14T06:29:30.598Z,4.80
2023-01-14T06:34:32.846Z,4.70
2023-01-14T06:39:35.628Z,4.80
2023-01-14T06:44:37.846Z,4.80
2023-01-14T06:49:40.086Z,4.80
2023-01-14T06:54:42.336Z,4.80
2023-01-14T06:59:44.627Z,4.90
2023-01-14T07:04:46.858Z,4.90
2023-01-14T07:09:49.040Z,5.00
2023-01-14T07:14:51.250Z,4.80
2023-01-14T07:19:53.764Z,4.80
2023-01-14T07:24:55.941Z,4.70
2023-01-14T07:29:59.030Z,4.70
2023-01-14T07:35:01.697Z,4.50
2023-01-14T07:40:04.967Z,4.40
2023-01-14T07:45:08.259Z,4.50
2023-01-14T07:50:11.245Z,4.50
2023-01-14T07:55:13.472Z,4.40
2023-01-14T08:00:16.872Z,4.20
2023-01-14T08:05:19.147Z,4.10
2023-01-14T08:10:21.578Z,4.30
2023-01-14T08:15:24.314Z,4.50
2023-01-14T08:20:26.787Z,4.50
2023-01-14T08:25:29.613Z,4.50
2023-01-14T08:30:32.962Z,4.80
2023-01-14T08:35:40.797Z,5.10
2023-01-14T08:40:42.975Z,5.10
2023-01-14T08:45:45.289Z,5.30
2023-01-14T08:50:47.639Z,5.30
2023-01-14T08:55:49.845Z,5.40
2023-01-14T09:00:57.087Z,5.40
2023-01-14T09:06:00.546Z,5.40
2023-01-14T09:11:22.633Z,5.40
2023-01-14T09:16:45.916Z,5.50
2023-01-14T09:21:48.217Z,5.40
2023-01-14T09:26:50.461Z,5.40
2023-01-14T09:31:52.709Z,5.40
2023-01-14T09:36:56.109Z,5.40
2023-01-14T09:42:02.761Z,5.20
2023-01-14T09:47:05.090Z,5.20
2023-01-14T10:02:55.929Z,5.20
2023-01-14T10:08:01.020Z,4.60
2023-01-14T10:13:24.094Z,4.50
2023-01-14T10:18:37.778Z,4.50
2023-01-14T10:23:42.014Z,4.30
2023-01-14T10:28:47.633Z,4.30
2023-01-14T10:33:50.350Z,4.30
2023-01-14T10:38:53.092Z,4.30
2023-01-14T10:43:55.318Z,4.20
2023-01-14T10:49:06.786Z,4.50
2023-01-14T10:54:16.218Z,4.50
2023-01-14T11:04:36.734Z,4.80
2023-01-14T11:09:40.379Z,5.20
2023-01-14T11:14:42.729Z,5.30
2023-01-14T11:19:44.982Z,5.40
2023-01-14T11:24:54.106Z,5.60
2023-01-14T11:30:01.724Z,5.70
2023-01-14T11:35:08.154Z,5.80
2023-01-14T11:40:52.642Z,5.90
2023-01-14T11:46:14.259Z,5.80
2023-01-14T11:51:20.903Z,5.80
2023-01-14T11:56:37.152Z,5.60
2023-01-14T12:01:44.408Z,5.60
2023-01-14T12:17:25.721Z,5.70
2023-01-14T12:22:51.817Z,5.90
2023-01-14T12:28:30.869Z,6.00
2023-01-14T12:39:11.653Z,6.00
2023-01-14T12:44:39.984Z,5.90
2023-01-14T12:49:45.219Z,5.90
2023-01-14T12:54:50.599Z,5.90
2023-01-14T12:59:57.688Z,5.90
2023-01-14T13:10:11.982Z,5.90
2023-01-14T13:15:30.820Z,6.10
2023-01-14T13:25:45.754Z,6.10
2023-01-14T13:46:48.792Z,6.10
2023-01-14T13:51:52.252Z,5.80
2023-01-14T13:57:13.867Z,5.90
2023-01-14T14:02:56.039Z,5.90
2023-01-14T14:18:32.193Z,5.90
2023-01-14T14:23:39.457Z,6.10
2023-01-14T14:28:46.029Z,6.10
2023-01-14T14:34:01.316Z,6.20
2023-01-14T14:39:03.683Z,6.20
2023-01-14T14:44:18.381Z,6.30
2023-01-14T14:49:31.331Z,6.20
2023-01-14T14:54:35.390Z,6.20
2023-01-14T14:59:39.517Z,6.20
2023-01-14T15:04:45.139Z,5.90
2023-01-14T15:09:49.239Z,5.90
2023-01-14T15:20:14.429Z,5.90
2023-01-14T15:25:19.972Z,5.90
2023-01-14T15:35:34.480Z,5.90
2023-01-14T15:40:49.473Z,5.70
2023-01-14T15:45:56.202Z,5.60
2023-01-14T15:51:01.846Z,5.70
2023-01-14T16:01:30.140Z,5.50
2023-01-14T16:06:42.782Z,5.60
2023-01-14T16:11:52.100Z,5.30
2023-01-14T16:16:54.387Z,5.40
2023-01-14T16:21:56.567Z,5.40
2023-01-14T16:27:00.745Z,5.50
2023-01-14T16:32:03.048Z,5.50
2023-01-14T16:37:05.505Z,5.50
2023-01-14T16:42:11.829Z,5.60
2023-01-14T16:47:15.521Z,5.50
2023-01-14T16:52:18.027Z,5.50
2023-01-14T16:57:20.613Z,5.60
2023-01-14T17:02:23.184Z,5.70
2023-01-14T17:07:25.499Z,5.70
2023-01-14T17:12:43.479Z,5.60
2023-01-14T17:17:46.438Z,5.50
2023-01-14T17:22:48.993Z,5.60
2023-01-14T17:27:52.417Z,5.60
2023-01-14T17:32:55.509Z,5.50
2023-01-14T17:37:59.597Z,5.60
2023-01-14T17:43:01.834Z,5.60
2023-01-14T17:48:04.293Z,5.60
2023-01-14T17:53:07.407Z,5.50
2023-01-14T17:58:09.671Z,5.60
2023-01-14T18:03:11.860Z,5.50
2023-01-14T18:08:14.179Z,5.50
2023-01-14T18:13:16.404Z,5.60
2023-01-14T18:18:18.635Z,5.70
2023-01-14T18:23:20.823Z,5.70
2023-01-14T18:28:23.070Z,5.70
2023-01-14T18:33:25.336Z,5.60
2023-01-14T18:38:27.777Z,5.60
2023-01-14T18:43:30.007Z,5.50
2023-01-14T18:48:32.245Z,5.40
2023-01-14T18:53:34.542Z,5.60
2023-01-14T18:58:39.283Z,5.40
2023-01-14T19:03:43.444Z,5.50
2023-01-14T19:08:47.706Z,5.60
2023-01-14T19:13:50.061Z,5.60
2023-01-14T19:18:53.119Z,5.50
2023-01-14T19:23:55.421Z,5.60
2023-01-14T19:28:57.862Z,5.40
2023-01-14T19:34:00.800Z,5.40
2023-01-14T19:39:03.408Z,5.50
2023-01-14T19:44:05.748Z,5.40
2023-01-14T19:49:08.331Z,5.40
2023-01-14T19:54:12.253Z,5.50
2023-01-14T19:59:14.863Z,5.50
2023-01-14T20:04:17.422Z,5.30
2023-01-14T20:09:19.740Z,5.20
2023-01-14T20:14:22.360Z,5.10
2023-01-14T20:19:25.051Z,5.10
2023-01-14T20:24:27.307Z,5.10
2023-01-14T20:29:29.535Z,5.20
2023-01-14T20:34:32.492Z,5.20
2023-01-14T20:39:34.848Z,4.90
2023-01-14T20:44:57.057Z,5.00
2023-01-14T20:50:00.291Z,4.90
2023-01-14T20:55:02.756Z,4.90
2023-01-14T21:00:06.125Z,4.90
2023-01-14T21:05:08.764Z,5.10
2023-01-14T21:10:11.592Z,5.30
2023-01-14T21:15:33.778Z,5.20
2023-01-14T21:20:55.992Z,5.30
2023-01-14T21:25:58.261Z,5.30
2023-01-14T21:31:01.401Z,5.10
2023-01-14T21:36:04.048Z,5.30
2023-01-14T21:41:28.596Z,5.40
2023-01-14T21:46:31.031Z,5.30
2023-01-14T21:51:33.351Z,5.30
2023-01-14T21:56:35.619Z,5.40
2023-01-14T22:01:38.486Z,5.40
2023-01-14T22:07:31.590Z,5.30
2023-01-14T22:12:34.747Z,5.40
2023-01-14T22:17:36.966Z,5.40
2023-01-14T22:22:39.268Z,5.20
2023-01-14T22:27:41.652Z,5.30
2023-01-14T22:32:43.965Z,5.10
2023-01-14T22:37:47.751Z,5.20
2023-01-14T22:42:50.036Z,5.20
2023-01-14T22:47:52.238Z,5.30
2023-01-14T22:52:54.528Z,5.20
2023-01-14T22:57:56.950Z,5.00
2023-01-14T23:03:01.136Z,4.70
2023-01-14T23:08:03.578Z,4.80
2023-01-14T23:13:05.815Z,4.80
2023-01-14T23:18:08.064Z,4.90
2023-01-14T23:23:30.236Z,5.00
2023-01-14T23:28:32.491Z,5.00
2023-01-14T23:33:34.689Z,5.10
2023-01-14T23:38:37.655Z,5.20
2023-01-14T23:43:40.799Z,5.30
2023-01-14T23:48:43.172Z,5.40
2023-01-14T23:53:45.569Z,5.40
2023-01-14T23:58:48.021Z,5.50
